Logo AVAMET
Benvolgut visitant, si us plau, ingressa Recuperar contrasenya

Atzeneta del Maestrat Ajuntament

Microdades

Dia
Data Direcció
vent
(graus)
Direcció
vent
Velocitat
vent
(km/h)
Ràfega
màx vent
(km/h)
Temperatura
(°C)
Humitat
relativa
(%)
Pressió
(hPa)
Precipitació
acumulada
(mm)
25-09-2017 00:05 221 SO 0,0 0,0 15,8 85,0 1.019,3 0,0
25-09-2017 00:10 224 SO 0,0 0,0 15,8 85,0 1.019,2 0,0
25-09-2017 00:15 222 SO 0,0 0,0 15,7 85,0 1.019,2 0,0
25-09-2017 00:20 225 SO 0,0 0,0 15,6 85,0 1.019,2 0,0
25-09-2017 00:25 238 OSO 0,0 0,0 15,6 85,0 1.019,1 0,0
25-09-2017 00:30 245 OSO 0,0 0,0 15,6 85,0 1.019,0 0,0
25-09-2017 00:35 245 OSO 0,0 0,0 15,6 85,0 1.019,0 0,0
25-09-2017 00:45 204 SSO 1,6 3,2 15,5 85,0 1.019,0 0,0
25-09-2017 00:50 218 SO 3,2 3,2 15,4 86,0 1.018,9 0,0
25-09-2017 00:55 253 OSO 0,0 3,2 15,4 86,0 1.018,9 0,0
25-09-2017 01:00 244 OSO 0,0 3,2 15,4 86,0 1.018,8 0,0
25-09-2017 01:05 244 OSO 0,0 3,2 15,3 86,0 1.018,8 0,0
25-09-2017 01:10 244 OSO 0,0 3,2 15,3 85,0 1.018,8 0,0
25-09-2017 01:15 239 OSO 0,0 3,2 15,2 85,0 1.018,7 0,0
25-09-2017 01:20 212 SSO 1,6 3,2 15,2 86,0 1.018,7 0,0
25-09-2017 01:25 236 SO 0,0 3,2 15,2 86,0 1.018,7 0,0
25-09-2017 01:30 236 SO 0,0 3,2 15,1 86,0 1.018,6 0,0
25-09-2017 01:45 234 SO 0,0 3,2 14,8 86,0 1.018,4 0,0
25-09-2017 01:50 231 SO 0,0 3,2 14,8 87,0 1.018,4 0,0
25-09-2017 01:55 231 SO 0,0 3,2 14,7 87,0 1.018,5 0,0
25-09-2017 02:05 199 SSO 0,0 3,2 14,6 87,0 1.018,4 0,0
25-09-2017 02:15 200 SSO 1,6 3,2 14,6 86,0 1.018,4 0,0
25-09-2017 02:25 210 SSO 1,6 3,2 14,3 87,0 1.018,3 0,0
25-09-2017 02:40 226 SO 0,0 3,2 14,2 87,0 1.018,3 0,0
25-09-2017 02:45 210 SSO 0,0 3,2 14,2 86,0 1.018,1 0,0
25-09-2017 02:50 238 OSO 0,0 3,2 14,2 86,0 1.018,2 0,0
25-09-2017 02:55 190 S 0,0 3,2 14,1 86,0 1.018,2 0,0
25-09-2017 03:00 214 SO 0,0 3,2 14,0 86,0 1.018,1 0,0
25-09-2017 03:05 226 SO 4,8 4,8 13,9 86,0 1.018,0 0,0
25-09-2017 03:10 219 SO 1,6 6,4 13,9 86,0 1.017,9 0,0
25-09-2017 03:15 240 OSO 0,0 6,4 13,9 86,0 1.017,8 0,0
25-09-2017 03:20 236 SO 0,0 6,4 13,8 85,0 1.017,9 0,0
25-09-2017 03:25 152 SSE 0,0 6,4 13,9 85,0 1.017,9 0,0
25-09-2017 03:30 230 SO 1,6 6,4 13,9 85,0 1.017,6 0,0
25-09-2017 03:50 227 SO 0,0 6,4 13,9 83,0 1.017,5 0,0
25-09-2017 03:55 217 SO 0,0 6,4 13,9 83,0 1.017,4 0,0
25-09-2017 04:05 217 SO 0,0 6,4 13,7 84,0 1.017,2 0,0
25-09-2017 04:10 219 SO 0,0 6,4 13,8 83,0 1.017,2 0,0
25-09-2017 04:15 205 SSO 0,0 6,4 13,7 84,0 1.017,2 0,0
25-09-2017 04:20 204 SSO 0,0 6,4 13,5 84,0 1.017,1 0,0
25-09-2017 04:25 150 SSE 0,0 6,4 13,3 85,0 1.017,1 0,0
25-09-2017 04:30 167 SSE 1,6 6,4 13,2 85,0 1.017,0 0,0
25-09-2017 04:35 169 S 0,0 6,4 13,0 86,0 1.017,0 0,0
25-09-2017 04:45 169 S 0,0 6,4 12,8 87,0 1.017,0 0,0
25-09-2017 04:50 169 S 0,0 6,4 12,7 87,0 1.017,0 0,0
25-09-2017 04:55 169 S 0,0 6,4 12,6 87,0 1.017,0 0,0
25-09-2017 05:00 176 S 0,0 6,4 12,5 88,0 1.017,0 0,0
25-09-2017 05:10 232 SO 0,0 6,4 12,6 87,0 1.016,9 0,0
25-09-2017 05:15 191 S 1,6 6,4 12,5 88,0 1.016,9 0,0
25-09-2017 05:20 218 SO 0,0 6,4 12,4 88,0 1.016,9 0,0
25-09-2017 05:25 219 SO 1,6 6,4 12,4 88,0 1.016,8 0,0
25-09-2017 05:30 231 SO 0,0 6,4 12,5 87,0 1.016,7 0,0
25-09-2017 05:35 249 OSO 3,2 6,4 12,4 87,0 1.016,7 0,0
25-09-2017 05:40 266 O 1,6 6,4 12,3 88,0 1.016,7 0,0
25-09-2017 05:45 255 OSO 0,0 6,4 12,4 87,0 1.016,7 0,0
25-09-2017 05:55 242 OSO 0,0 6,4 12,6 86,0 1.016,7 0,0
25-09-2017 06:05 163 SSE 0,0 6,4 12,4 86,0 1.016,6 0,0
25-09-2017 06:10 172 S 1,6 6,4 12,3 87,0 1.016,5 0,0
25-09-2017 06:15 229 SO 0,0 6,4 12,3 87,0 1.016,6 0,0
25-09-2017 06:25 99 E 0,0 6,4 12,2 87,0 1.016,6 0,0
25-09-2017 06:30 99 E 0,0 6,4 12,1 88,0 1.016,6 0,0
25-09-2017 06:35 225 SO 1,6 6,4 12,1 88,0 1.016,6 0,0
25-09-2017 06:45 234 SO 1,6 6,4 12,3 87,0 1.016,5 0,0
25-09-2017 06:55 209 SSO 0,0 6,4 12,4 86,0 1.016,7 0,0
25-09-2017 07:05 238 OSO 0,0 6,4 12,4 86,0 1.016,7 0,0
25-09-2017 07:20 161 SSE 3,2 6,4 12,4 86,0 1.016,8 0,0
25-09-2017 07:25 244 OSO 0,0 6,4 12,4 86,0 1.016,8 0,0
25-09-2017 07:30 258 OSO 0,0 6,4 12,5 86,0 1.016,7 0,0
25-09-2017 07:35 132 SE 1,6 6,4 12,5 86,0 1.016,8 0,0
25-09-2017 07:40 148 SSE 0,0 6,4 12,5 86,0 1.016,8 0,0
25-09-2017 07:45 169 S 0,0 6,4 12,7 85,0 1.016,8 0,0
25-09-2017 07:50 219 SO 0,0 6,4 12,8 85,0 1.016,7 0,0
25-09-2017 07:55 23 NNE 0,0 6,4 12,9 85,0 1.016,9 0,0
25-09-2017 08:00 109 ESE 0,0 6,4 12,8 85,0 1.016,9 0,0
25-09-2017 08:05 110 ESE 0,0 6,4 12,6 86,0 1.016,9 0,0
25-09-2017 08:15 107 ESE 0,0 6,4 12,6 87,0 1.016,8 0,0
25-09-2017 08:20 86 E 0,0 6,4 12,6 87,0 1.016,9 0,0
25-09-2017 08:30 88 E 0,0 6,4 12,8 87,0 1.016,9 0,0
25-09-2017 08:35 88 E 0,0 6,4 13,0 87,0 1.016,9 0,0
25-09-2017 08:40 88 E 0,0 6,4 13,3 86,0 1.017,0 0,0
25-09-2017 08:45 86 E 0,0 6,4 14,0 86,0 1.017,0 0,0
25-09-2017 08:50 74 ENE 0,0 6,4 14,4 83,0 1.016,9 0,0
25-09-2017 09:00 83 E 0,0 6,4 15,0 80,0 1.017,0 0,0
25-09-2017 09:05 91 E 0,0 6,4 15,6 78,0 1.016,9 0,0
25-09-2017 09:10 93 E 0,0 6,4 16,2 75,0 1.016,9 0,0
25-09-2017 09:20 92 E 0,0 6,4 17,2 75,0 1.017,0 0,0
25-09-2017 09:30 112 ESE 0,0 6,4 18,9 67,0 1.016,9 0,0
25-09-2017 09:45 222 SO 0,0 6,4 19,9 62,0 1.016,9 0,0
Nota sobre les dades: s'avisa a l'usuari de la provisionalitat i no oficialitat d'aquestes dades
Descarregar PDF
Descarregar CSV
Logo AVAMET blanc
Llicència de Creative CommonsLa web d'AVAMET i els seus continguts estan subjectes a una llicència de
Reconeixement - No Comercial - Compartir igual